sensor_id;sensor_type;location;lat;lon;timestamp;P1;durP1;ratioP1;P2;durP2;ratioP2
10463;SDS011;5279;42.048;24.638;2023-08-30T00:01:42;7.73;;;6.70;;
10463;SDS011;5279;42.048;24.638;2023-08-30T00:04:09;7.63;;;6.83;;
10463;SDS011;5279;42.048;24.638;2023-08-30T00:06:37;8.07;;;7.00;;
10463;SDS011;5279;42.048;24.638;2023-08-30T00:09:04;8.37;;;7.17;;
10463;SDS011;5279;42.048;24.638;2023-08-30T00:11:31;8.30;;;6.90;;
10463;SDS011;5279;42.048;24.638;2023-08-30T00:14:02;7.73;;;6.77;;
10463;SDS011;5279;42.048;24.638;2023-08-30T00:16:30;7.73;;;6.77;;
10463;SDS011;5279;42.048;24.638;2023-08-30T00:18:59;9.37;;;6.50;;
10463;SDS011;5279;42.048;24.638;2023-08-30T00:21:26;6.90;;;5.87;;
10463;SDS011;5279;42.048;24.638;2023-08-30T00:23:53;12.13;;;7.10;;
10463;SDS011;5279;42.048;24.638;2023-08-30T00:26:20;7.50;;;5.70;;
10463;SDS011;5279;42.048;24.638;2023-08-30T00:28:49;7.50;;;6.07;;
10463;SDS011;5279;42.048;24.638;2023-08-30T00:31:16;7.33;;;5.87;;
10463;SDS011;5279;42.048;24.638;2023-08-30T00:33:44;6.83;;;6.03;;
10463;SDS011;5279;42.048;24.638;2023-08-30T00:36:12;10.23;;;6.03;;
10463;SDS011;5279;42.048;24.638;2023-08-30T00:38:39;6.60;;;5.90;;
10463;SDS011;5279;42.048;24.638;2023-08-30T00:41:06;6.63;;;5.80;;
10463;SDS011;5279;42.048;24.638;2023-08-30T00:43:33;7.73;;;5.50;;
10463;SDS011;5279;42.048;24.638;2023-08-30T00:46:00;7.77;;;6.17;;
10463;SDS011;5279;42.048;24.638;2023-08-30T00:48:27;7.73;;;6.17;;
10463;SDS011;5279;42.048;24.638;2023-08-30T00:50:54;6.60;;;5.83;;
10463;SDS011;5279;42.048;24.638;2023-08-30T00:53:23;7.20;;;5.60;;
10463;SDS011;5279;42.048;24.638;2023-08-30T00:55:50;7.50;;;6.47;;
10463;SDS011;5279;42.048;24.638;2023-08-30T00:58:18;6.90;;;5.50;;
10463;SDS011;5279;42.048;24.638;2023-08-30T01:00:45;7.07;;;5.60;;
10463;SDS011;5279;42.048;24.638;2023-08-30T01:03:13;8.13;;;5.73;;
10463;SDS011;5279;42.048;24.638;2023-08-30T01:05:40;6.47;;;5.80;;
10463;SDS011;5279;42.048;24.638;2023-08-30T01:08:07;8.40;;;5.77;;
10463;SDS011;5279;42.048;24.638;2023-08-30T01:10:41;6.93;;;6.20;;
10463;SDS011;5279;42.048;24.638;2023-08-30T01:13:18;7.23;;;5.57;;
10463;SDS011;5279;42.048;24.638;2023-08-30T01:15:46;6.87;;;5.37;;
10463;SDS011;5279;42.048;24.638;2023-08-30T01:18:16;8.07;;;6.03;;
10463;SDS011;5279;42.048;24.638;2023-08-30T01:20:45;8.20;;;6.10;;
10463;SDS011;5279;42.048;24.638;2023-08-30T01:23:17;7.47;;;5.87;;
10463;SDS011;5279;42.048;24.638;2023-08-30T01:26:02;6.27;;;5.63;;
10463;SDS011;5279;42.048;24.638;2023-08-30T01:28:36;6.20;;;5.60;;
10463;SDS011;5279;42.048;24.638;2023-08-30T01:31:06;6.23;;;5.23;;
10463;SDS011;5279;42.048;24.638;2023-08-30T01:33:34;5.30;;;4.80;;
10463;SDS011;5279;42.048;24.638;2023-08-30T01:36:01;7.23;;;5.30;;
10463;SDS011;5279;42.048;24.638;2023-08-30T01:38:31;10.10;;;5.40;;
10463;SDS011;5279;42.048;24.638;2023-08-30T01:40:59;5.70;;;5.10;;
10463;SDS011;5279;42.048;24.638;2023-08-30T01:43:27;7.43;;;5.57;;
10463;SDS011;5279;42.048;24.638;2023-08-30T01:45:57;6.67;;;5.80;;
10463;SDS011;5279;42.048;24.638;2023-08-30T01:48:25;8.10;;;5.50;;
10463;SDS011;5279;42.048;24.638;2023-08-30T01:50:55;6.97;;;5.30;;
10463;SDS011;5279;42.048;24.638;2023-08-30T01:53:25;6.07;;;5.43;;
10463;SDS011;5279;42.048;24.638;2023-08-30T01:55:54;6.33;;;5.73;;
10463;SDS011;5279;42.048;24.638;2023-08-30T01:58:21;6.00;;;5.40;;
10463;SDS011;5279;42.048;24.638;2023-08-30T02:00:48;5.80;;;5.30;;
10463;SDS011;5279;42.048;24.638;2023-08-30T02:03:17;6.43;;;5.67;;
10463;SDS011;5279;42.048;24.638;2023-08-30T02:05:48;9.13;;;5.70;;
10463;SDS011;5279;42.048;24.638;2023-08-30T02:08:26;8.30;;;5.93;;
10463;SDS011;5279;42.048;24.638;2023-08-30T02:10:56;5.50;;;5.00;;
10463;SDS011;5279;42.048;24.638;2023-08-30T02:13:31;8.90;;;5.60;;
10463;SDS011;5279;42.048;24.638;2023-08-30T02:16:00;7.13;;;5.10;;
10463;SDS011;5279;42.048;24.638;2023-08-30T02:18:29;6.20;;;5.70;;
10463;SDS011;5279;42.048;24.638;2023-08-30T02:20:57;6.70;;;5.40;;
10463;SDS011;5279;42.048;24.638;2023-08-30T02:23:24;9.47;;;5.87;;
10463;SDS011;5279;42.048;24.638;2023-08-30T02:25:53;6.77;;;6.07;;
10463;SDS011;5279;42.048;24.638;2023-08-30T02:28:21;7.53;;;5.40;;
10463;SDS011;5279;42.048;24.638;2023-08-30T02:30:49;6.77;;;5.97;;
10463;SDS011;5279;42.048;24.638;2023-08-30T02:33:16;6.47;;;5.27;;
10463;SDS011;5279;42.048;24.638;2023-08-30T02:35:45;7.50;;;5.40;;
10463;SDS011;5279;42.048;24.638;2023-08-30T02:38:12;7.17;;;5.30;;
10463;SDS011;5279;42.048;24.638;2023-08-30T02:40:39;7.03;;;5.13;;
10463;SDS011;5279;42.048;24.638;2023-08-30T02:43:06;7.73;;;5.73;;
10463;SDS011;5279;42.048;24.638;2023-08-30T02:45:32;6.63;;;5.10;;
10463;SDS011;5279;42.048;24.638;2023-08-30T02:47:59;9.27;;;5.77;;
10463;SDS011;5279;42.048;24.638;2023-08-30T02:50:26;8.03;;;6.50;;
10463;SDS011;5279;42.048;24.638;2023-08-30T02:52:55;8.77;;;5.80;;
10463;SDS011;5279;42.048;24.638;2023-08-30T02:55:22;10.53;;;5.97;;
10463;SDS011;5279;42.048;24.638;2023-08-30T02:57:48;7.57;;;5.27;;
10463;SDS011;5279;42.048;24.638;2023-08-30T03:00:15;7.47;;;4.93;;
10463;SDS011;5279;42.048;24.638;2023-08-30T03:02:42;5.80;;;5.30;;
10463;SDS011;5279;42.048;24.638;2023-08-30T03:05:09;6.73;;;5.23;;
10463;SDS011;5279;42.048;24.638;2023-08-30T03:07:37;5.80;;;5.20;;
10463;SDS011;5279;42.048;24.638;2023-08-30T03:10:06;6.40;;;5.10;;
10463;SDS011;5279;42.048;24.638;2023-08-30T03:12:34;5.37;;;4.63;;
10463;SDS011;5279;42.048;24.638;2023-08-30T03:15:01;5.30;;;4.80;;
10463;SDS011;5279;42.048;24.638;2023-08-30T03:34:50;5.97;;;4.87;;
10463;SDS011;5279;42.048;24.638;2023-08-30T03:37:17;6.97;;;5.23;;
10463;SDS011;5279;42.048;24.638;2023-08-30T03:39:44;11.63;;;4.70;;
10463;SDS011;5279;42.048;24.638;2023-08-30T03:42:11;5.87;;;5.37;;
10463;SDS011;5279;42.048;24.638;2023-08-30T03:44:38;6.20;;;4.93;;
10463;SDS011;5279;42.048;24.638;2023-08-30T03:47:05;5.30;;;4.80;;
10463;SDS011;5279;42.048;24.638;2023-08-30T03:49:32;6.40;;;5.60;;
10463;SDS011;5279;42.048;24.638;2023-08-30T03:52:00;6.57;;;5.27;;
10463;SDS011;5279;42.048;24.638;2023-08-30T03:54:27;6.60;;;5.20;;
10463;SDS011;5279;42.048;24.638;2023-08-30T03:56:53;7.00;;;5.13;;
10463;SDS011;5279;42.048;24.638;2023-08-30T03:59:20;8.03;;;5.40;;
10463;SDS011;5279;42.048;24.638;2023-08-30T04:01:48;5.20;;;4.70;;
10463;SDS011;5279;42.048;24.638;2023-08-30T04:04:15;6.00;;;4.97;;
10463;SDS011;5279;42.048;24.638;2023-08-30T04:06:42;7.47;;;5.10;;
10463;SDS011;5279;42.048;24.638;2023-08-30T04:09:10;9.87;;;5.30;;
10463;SDS011;5279;42.048;24.638;2023-08-30T04:11:37;8.70;;;5.00;;
10463;SDS011;5279;42.048;24.638;2023-08-30T04:14:04;7.07;;;4.93;;
10463;SDS011;5279;42.048;24.638;2023-08-30T04:16:31;8.90;;;5.27;;
10463;SDS011;5279;42.048;24.638;2023-08-30T04:18:58;7.77;;;4.93;;
10463;SDS011;5279;42.048;24.638;2023-08-30T04:21:25;6.90;;;4.93;;
10463;SDS011;5279;42.048;24.638;2023-08-30T04:23:52;5.67;;;5.17;;
10463;SDS011;5279;42.048;24.638;2023-08-30T04:26:21;5.53;;;5.07;;
10463;SDS011;5279;42.048;24.638;2023-08-30T04:28:48;8.03;;;5.57;;
10463;SDS011;5279;42.048;24.638;2023-08-30T04:31:15;7.53;;;5.53;;
10463;SDS011;5279;42.048;24.638;2023-08-30T04:33:42;7.33;;;5.33;;
10463;SDS011;5279;42.048;24.638;2023-08-30T04:36:09;5.93;;;5.33;;
10463;SDS011;5279;42.048;24.638;2023-08-30T04:38:36;4.90;;;4.43;;
10463;SDS011;5279;42.048;24.638;2023-08-30T04:41:03;6.77;;;4.43;;
10463;SDS011;5279;42.048;24.638;2023-08-30T04:43:32;5.20;;;4.70;;
10463;SDS011;5279;42.048;24.638;2023-08-30T04:45:59;5.63;;;5.10;;
10463;SDS011;5279;42.048;24.638;2023-08-30T04:48:26;5.23;;;4.80;;
10463;SDS011;5279;42.048;24.638;2023-08-30T04:51:00;9.13;;;5.10;;
10463;SDS011;5279;42.048;24.638;2023-08-30T04:53:30;6.20;;;4.80;;
10463;SDS011;5279;42.048;24.638;2023-08-30T04:55:57;5.87;;;4.70;;
10463;SDS011;5279;42.048;24.638;2023-08-30T04:58:25;6.27;;;5.17;;
10463;SDS011;5279;42.048;24.638;2023-08-30T05:00:56;5.10;;;4.53;;
10463;SDS011;5279;42.048;24.638;2023-08-30T05:03:23;7.40;;;5.00;;
10463;SDS011;5279;42.048;24.638;2023-08-30T05:05:50;6.50;;;5.07;;
10463;SDS011;5279;42.048;24.638;2023-08-30T05:08:17;6.20;;;5.17;;
10463;SDS011;5279;42.048;24.638;2023-08-30T05:10:45;5.73;;;4.60;;
10463;SDS011;5279;42.048;24.638;2023-08-30T05:13:14;5.27;;;4.73;;
10463;SDS011;5279;42.048;24.638;2023-08-30T05:15:42;6.50;;;5.40;;
10463;SDS011;5279;42.048;24.638;2023-08-30T05:18:11;6.50;;;4.77;;
10463;SDS011;5279;42.048;24.638;2023-08-30T05:20:38;7.37;;;5.03;;
10463;SDS011;5279;42.048;24.638;2023-08-30T05:23:05;7.60;;;5.00;;
10463;SDS011;5279;42.048;24.638;2023-08-30T05:25:32;5.83;;;5.30;;
10463;SDS011;5279;42.048;24.638;2023-08-30T05:27:59;7.43;;;5.07;;
10463;SDS011;5279;42.048;24.638;2023-08-30T05:30:26;7.53;;;5.70;;
10463;SDS011;5279;42.048;24.638;2023-08-30T05:32:53;6.97;;;4.43;;
10463;SDS011;5279;42.048;24.638;2023-08-30T05:35:21;5.77;;;5.10;;
10463;SDS011;5279;42.048;24.638;2023-08-30T05:37:49;6.47;;;5.13;;
10463;SDS011;5279;42.048;24.638;2023-08-30T05:40:17;5.67;;;5.07;;
10463;SDS011;5279;42.048;24.638;2023-08-30T05:42:44;5.57;;;5.00;;
10463;SDS011;5279;42.048;24.638;2023-08-30T05:45:11;10.07;;;5.30;;
10463;SDS011;5279;42.048;24.638;2023-08-30T05:47:38;7.17;;;5.67;;
10463;SDS011;5279;42.048;24.638;2023-08-30T05:50:06;5.57;;;5.07;;
10463;SDS011;5279;42.048;24.638;2023-08-30T05:52:34;5.47;;;4.80;;
10463;SDS011;5279;42.048;24.638;2023-08-30T05:55:06;6.10;;;5.43;;
10463;SDS011;5279;42.048;24.638;2023-08-30T05:57:34;6.37;;;5.27;;
10463;SDS011;5279;42.048;24.638;2023-08-30T06:00:01;9.87;;;5.30;;
10463;SDS011;5279;42.048;24.638;2023-08-30T06:02:30;6.10;;;5.53;;
10463;SDS011;5279;42.048;24.638;2023-08-30T06:04:56;7.33;;;5.23;;
10463;SDS011;5279;42.048;24.638;2023-08-30T06:07:24;7.30;;;5.43;;
10463;SDS011;5279;42.048;24.638;2023-08-30T06:09:53;6.50;;;5.90;;
10463;SDS011;5279;42.048;24.638;2023-08-30T06:12:21;6.63;;;5.97;;
10463;SDS011;5279;42.048;24.638;2023-08-30T06:14:50;7.50;;;6.03;;
10463;SDS011;5279;42.048;24.638;2023-08-30T06:17:18;7.23;;;5.47;;
10463;SDS011;5279;42.048;24.638;2023-08-30T06:19:45;8.97;;;6.33;;
10463;SDS011;5279;42.048;24.638;2023-08-30T06:22:12;10.13;;;6.50;;
10463;SDS011;5279;42.048;24.638;2023-08-30T06:24:40;9.93;;;5.67;;
10463;SDS011;5279;42.048;24.638;2023-08-30T06:27:13;7.00;;;6.30;;
10463;SDS011;5279;42.048;24.638;2023-08-30T06:29:40;7.47;;;6.70;;
10463;SDS011;5279;42.048;24.638;2023-08-30T06:32:07;8.10;;;6.00;;
10463;SDS011;5279;42.048;24.638;2023-08-30T06:34:34;7.03;;;6.30;;
10463;SDS011;5279;42.048;24.638;2023-08-30T06:37:01;7.97;;;5.83;;
10463;SDS011;5279;42.048;24.638;2023-08-30T06:39:32;7.73;;;5.87;;
10463;SDS011;5279;42.048;24.638;2023-08-30T06:41:59;5.40;;;4.90;;
10463;SDS011;5279;42.048;24.638;2023-08-30T06:44:28;9.90;;;5.60;;
10463;SDS011;5279;42.048;24.638;2023-08-30T06:46:55;6.97;;;5.67;;
10463;SDS011;5279;42.048;24.638;2023-08-30T06:49:22;9.57;;;5.57;;
10463;SDS011;5279;42.048;24.638;2023-08-30T06:51:49;9.43;;;5.73;;
10463;SDS011;5279;42.048;24.638;2023-08-30T06:54:16;7.40;;;4.97;;
10463;SDS011;5279;42.048;24.638;2023-08-30T06:56:45;9.10;;;6.30;;
10463;SDS011;5279;42.048;24.638;2023-08-30T06:59:22;8.83;;;5.60;;
10463;SDS011;5279;42.048;24.638;2023-08-30T07:01:51;7.73;;;5.23;;
10463;SDS011;5279;42.048;24.638;2023-08-30T07:04:18;8.57;;;5.83;;
10463;SDS011;5279;42.048;24.638;2023-08-30T07:06:45;5.70;;;5.20;;
10463;SDS011;5279;42.048;24.638;2023-08-30T07:09:12;8.13;;;5.60;;
10463;SDS011;5279;42.048;24.638;2023-08-30T07:11:39;9.77;;;5.57;;
10463;SDS011;5279;42.048;24.638;2023-08-30T07:14:09;8.63;;;5.43;;
10463;SDS011;5279;42.048;24.638;2023-08-30T07:16:36;8.60;;;5.50;;
10463;SDS011;5279;42.048;24.638;2023-08-30T07:19:04;7.10;;;6.40;;
10463;SDS011;5279;42.048;24.638;2023-08-30T07:21:31;8.77;;;7.83;;
10463;SDS011;5279;42.048;24.638;2023-08-30T07:24:01;6.67;;;5.57;;
10463;SDS011;5279;42.048;24.638;2023-08-30T07:26:28;7.27;;;5.27;;
10463;SDS011;5279;42.048;24.638;2023-08-30T07:28:55;6.33;;;5.73;;
10463;SDS011;5279;42.048;24.638;2023-08-30T07:31:22;6.70;;;5.30;;
10463;SDS011;5279;42.048;24.638;2023-08-30T07:33:49;5.57;;;4.93;;
10463;SDS011;5279;42.048;24.638;2023-08-30T07:36:17;5.87;;;5.27;;
10463;SDS011;5279;42.048;24.638;2023-08-30T07:38:44;6.53;;;5.20;;
10463;SDS011;5279;42.048;24.638;2023-08-30T07:41:11;5.53;;;4.90;;
10463;SDS011;5279;42.048;24.638;2023-08-30T07:43:38;6.83;;;5.17;;
10463;SDS011;5279;42.048;24.638;2023-08-30T07:46:05;6.23;;;5.00;;
10463;SDS011;5279;42.048;24.638;2023-08-30T07:48:32;10.38;;;5.15;;
10463;SDS011;5279;42.048;24.638;2023-08-30T07:50:59;6.00;;;5.13;;
10463;SDS011;5279;42.048;24.638;2023-08-30T07:53:27;5.83;;;5.23;;
10463;SDS011;5279;42.048;24.638;2023-08-30T07:55:54;5.97;;;4.97;;
10463;SDS011;5279;42.048;24.638;2023-08-30T07:58:21;5.73;;;5.00;;
10463;SDS011;5279;42.048;24.638;2023-08-30T08:00:50;6.50;;;5.45;;
10463;SDS011;5279;42.048;24.638;2023-08-30T08:03:17;6.35;;;5.10;;
10463;SDS011;5279;42.048;24.638;2023-08-30T08:05:44;7.22;;;5.18;;
10463;SDS011;5279;42.048;24.638;2023-08-30T08:08:11;10.23;;;5.40;;
10463;SDS011;5279;42.048;24.638;2023-08-30T08:10:41;7.82;;;5.40;;
10463;SDS011;5279;42.048;24.638;2023-08-30T08:13:08;6.78;;;4.75;;
10463;SDS011;5279;42.048;24.638;2023-08-30T08:15:36;5.78;;;5.05;;
10463;SDS011;5279;42.048;24.638;2023-08-30T08:18:03;5.60;;;5.10;;
10463;SDS011;5279;42.048;24.638;2023-08-30T08:20:30;6.25;;;4.75;;
10463;SDS011;5279;42.048;24.638;2023-08-30T08:22:57;8.05;;;5.03;;
10463;SDS011;5279;42.048;24.638;2023-08-30T08:25:23;5.18;;;4.45;;
10463;SDS011;5279;42.048;24.638;2023-08-30T08:27:52;6.57;;;5.20;;
10463;SDS011;5279;42.048;24.638;2023-08-30T08:30:19;8.00;;;5.47;;
10463;SDS011;5279;42.048;24.638;2023-08-30T08:32:46;6.68;;;5.07;;
10463;SDS011;5279;42.048;24.638;2023-08-30T08:35:13;6.72;;;5.30;;
10463;SDS011;5279;42.048;24.638;2023-08-30T08:37:42;7.57;;;5.13;;
10463;SDS011;5279;42.048;24.638;2023-08-30T08:40:09;7.45;;;4.88;;
10463;SDS011;5279;42.048;24.638;2023-08-30T08:42:36;10.50;;;5.25;;
10463;SDS011;5279;42.048;24.638;2023-08-30T08:45:05;7.00;;;4.78;;
10463;SDS011;5279;42.048;24.638;2023-08-30T08:47:35;8.85;;;4.90;;
10463;SDS011;5279;42.048;24.638;2023-08-30T08:50:03;6.60;;;5.32;;
10463;SDS011;5279;42.048;24.638;2023-08-30T08:52:31;6.40;;;5.13;;
10463;SDS011;5279;42.048;24.638;2023-08-30T08:54:58;6.10;;;4.90;;
10463;SDS011;5279;42.048;24.638;2023-08-30T08:57:26;5.70;;;5.05;;
10463;SDS011;5279;42.048;24.638;2023-08-30T08:59:56;9.05;;;4.85;;
10463;SDS011;5279;42.048;24.638;2023-08-30T09:02:24;5.82;;;4.75;;
10463;SDS011;5279;42.048;24.638;2023-08-30T09:04:52;7.55;;;4.72;;
10463;SDS011;5279;42.048;24.638;2023-08-30T09:07:22;8.05;;;4.85;;
10463;SDS011;5279;42.048;24.638;2023-08-30T09:09:51;8.02;;;5.28;;
10463;SDS011;5279;42.048;24.638;2023-08-30T09:12:20;5.90;;;4.57;;
10463;SDS011;5279;42.048;24.638;2023-08-30T09:14:52;5.07;;;4.65;;
10463;SDS011;5279;42.048;24.638;2023-08-30T09:17:20;5.50;;;4.85;;
10463;SDS011;5279;42.048;24.638;2023-08-30T09:19:48;6.10;;;4.68;;
10463;SDS011;5279;42.048;24.638;2023-08-30T09:22:16;11.27;;;5.32;;
10463;SDS011;5279;42.048;24.638;2023-08-30T09:24:42;7.00;;;5.43;;
10463;SDS011;5279;42.048;24.638;2023-08-30T09:27:09;8.48;;;4.82;;
10463;SDS011;5279;42.048;24.638;2023-08-30T09:29:36;5.50;;;5.00;;
10463;SDS011;5279;42.048;24.638;2023-08-30T09:32:04;6.85;;;5.10;;
10463;SDS011;5279;42.048;24.638;2023-08-30T09:34:31;6.03;;;4.68;;
10463;SDS011;5279;42.048;24.638;2023-08-30T09:36:59;5.43;;;4.88;;
10463;SDS011;5279;42.048;24.638;2023-08-30T09:39:27;6.47;;;4.90;;
10463;SDS011;5279;42.048;24.638;2023-08-30T09:41:54;6.35;;;4.47;;
10463;SDS011;5279;42.048;24.638;2023-08-30T09:44:21;5.25;;;4.78;;
10463;SDS011;5279;42.048;24.638;2023-08-30T09:46:50;6.35;;;4.68;;
10463;SDS011;5279;42.048;24.638;2023-08-30T09:49:18;9.35;;;4.97;;
10463;SDS011;5279;42.048;24.638;2023-08-30T09:51:46;8.35;;;4.45;;
10463;SDS011;5279;42.048;24.638;2023-08-30T09:54:16;9.02;;;4.72;;
10463;SDS011;5279;42.048;24.638;2023-08-30T09:56:44;6.07;;;4.95;;
10463;SDS011;5279;42.048;24.638;2023-08-30T09:59:13;5.88;;;4.25;;
10463;SDS011;5279;42.048;24.638;2023-08-30T10:01:42;5.93;;;4.22;;
10463;SDS011;5279;42.048;24.638;2023-08-30T10:04:09;7.75;;;5.05;;
10463;SDS011;5279;42.048;24.638;2023-08-30T10:06:37;6.75;;;4.70;;
10463;SDS011;5279;42.048;24.638;2023-08-30T10:09:05;6.38;;;4.60;;
10463;SDS011;5279;42.048;24.638;2023-08-30T10:11:36;8.45;;;4.80;;
10463;SDS011;5279;42.048;24.638;2023-08-30T10:14:04;5.15;;;4.60;;
10463;SDS011;5279;42.048;24.638;2023-08-30T10:16:34;8.32;;;4.70;;
10463;SDS011;5279;42.048;24.638;2023-08-30T10:19:08;5.43;;;4.78;;
10463;SDS011;5279;42.048;24.638;2023-08-30T10:21:37;6.43;;;4.57;;
10463;SDS011;5279;42.048;24.638;2023-08-30T10:24:05;5.72;;;4.32;;
10463;SDS011;5279;42.048;24.638;2023-08-30T10:26:36;7.43;;;4.72;;
10463;SDS011;5279;42.048;24.638;2023-08-30T10:29:06;5.30;;;4.80;;
10463;SDS011;5279;42.048;24.638;2023-08-30T10:31:37;9.52;;;5.05;;
10463;SDS011;5279;42.048;24.638;2023-08-30T10:34:11;7.80;;;5.25;;
10463;SDS011;5279;42.048;24.638;2023-08-30T10:36:40;7.55;;;5.57;;
10463;SDS011;5279;42.048;24.638;2023-08-30T10:39:10;6.20;;;5.30;;
10463;SDS011;5279;42.048;24.638;2023-08-30T10:41:53;8.13;;;5.32;;
10463;SDS011;5279;42.048;24.638;2023-08-30T10:44:21;5.60;;;5.10;;
10463;SDS011;5279;42.048;24.638;2023-08-30T10:46:51;8.75;;;5.30;;
10463;SDS011;5279;42.048;24.638;2023-08-30T10:49:19;5.90;;;5.28;;
10463;SDS011;5279;42.048;24.638;2023-08-30T10:51:53;5.60;;;5.03;;
10463;SDS011;5279;42.048;24.638;2023-08-30T10:54:21;9.55;;;5.10;;
10463;SDS011;5279;42.048;24.638;2023-08-30T10:56:54;6.55;;;5.55;;
10463;SDS011;5279;42.048;24.638;2023-08-30T10:59:23;6.95;;;5.18;;
10463;SDS011;5279;42.048;24.638;2023-08-30T11:01:50;7.40;;;5.35;;
10463;SDS011;5279;42.048;24.638;2023-08-30T11:04:19;5.93;;;5.32;;
10463;SDS011;5279;42.048;24.638;2023-08-30T11:06:47;5.97;;;5.47;;
10463;SDS011;5279;42.048;24.638;2023-08-30T11:09:15;6.43;;;5.75;;
10463;SDS011;5279;42.048;24.638;2023-08-30T11:11:44;9.43;;;5.70;;
10463;SDS011;5279;42.048;24.638;2023-08-30T11:14:13;5.93;;;5.10;;
10463;SDS011;5279;42.048;24.638;2023-08-30T11:16:40;6.40;;;5.38;;
10463;SDS011;5279;42.048;24.638;2023-08-30T11:19:08;7.43;;;4.93;;
10463;SDS011;5279;42.048;24.638;2023-08-30T11:21:36;6.05;;;5.55;;
10463;SDS011;5279;42.048;24.638;2023-08-30T11:24:04;6.57;;;5.10;;
10463;SDS011;5279;42.048;24.638;2023-08-30T11:26:32;8.93;;;4.93;;
10463;SDS011;5279;42.048;24.638;2023-08-30T11:29:03;6.80;;;5.25;;
10463;SDS011;5279;42.048;24.638;2023-08-30T11:31:32;5.63;;;5.13;;
10463;SDS011;5279;42.048;24.638;2023-08-30T11:34:00;8.32;;;5.47;;
10463;SDS011;5279;42.048;24.638;2023-08-30T11:36:27;6.20;;;4.82;;
10463;SDS011;5279;42.048;24.638;2023-08-30T11:38:55;7.72;;;5.57;;
10463;SDS011;5279;42.048;24.638;2023-08-30T11:41:23;7.70;;;5.53;;
10463;SDS011;5279;42.048;24.638;2023-08-30T11:43:51;7.80;;;5.25;;
10463;SDS011;5279;42.048;24.638;2023-08-30T11:46:18;8.68;;;5.75;;
10463;SDS011;5279;42.048;24.638;2023-08-30T11:48:48;6.90;;;5.43;;
10463;SDS011;5279;42.048;24.638;2023-08-30T11:51:16;9.35;;;5.80;;
10463;SDS011;5279;42.048;24.638;2023-08-30T11:53:45;6.53;;;5.55;;
10463;SDS011;5279;42.048;24.638;2023-08-30T11:56:12;5.68;;;5.07;;
10463;SDS011;5279;42.048;24.638;2023-08-30T11:58:40;8.70;;;5.50;;
10463;SDS011;5279;42.048;24.638;2023-08-30T12:01:07;5.82;;;5.32;;
10463;SDS011;5279;42.048;24.638;2023-08-30T12:03:34;8.20;;;5.43;;
10463;SDS011;5279;42.048;24.638;2023-08-30T12:06:08;6.65;;;5.45;;
10463;SDS011;5279;42.048;24.638;2023-08-30T12:08:36;6.65;;;5.40;;
10463;SDS011;5279;42.048;24.638;2023-08-30T12:11:03;6.20;;;5.70;;
10463;SDS011;5279;42.048;24.638;2023-08-30T12:13:31;7.13;;;5.40;;
10463;SDS011;5279;42.048;24.638;2023-08-30T12:15:59;6.80;;;4.85;;
10463;SDS011;5279;42.048;24.638;2023-08-30T12:18:27;8.45;;;5.63;;
10463;SDS011;5279;42.048;24.638;2023-08-30T12:20:55;8.70;;;5.85;;
10463;SDS011;5279;42.048;24.638;2023-08-30T12:23:24;6.22;;;5.63;;
10463;SDS011;5279;42.048;24.638;2023-08-30T12:25:58;6.53;;;5.50;;
10463;SDS011;5279;42.048;24.638;2023-08-30T12:28:26;6.82;;;5.43;;
10463;SDS011;5279;42.048;24.638;2023-08-30T12:30:54;6.70;;;5.50;;
10463;SDS011;5279;42.048;24.638;2023-08-30T12:33:21;7.35;;;5.32;;
10463;SDS011;5279;42.048;24.638;2023-08-30T12:35:50;5.88;;;5.18;;
10463;SDS011;5279;42.048;24.638;2023-08-30T12:38:17;6.25;;;5.65;;
10463;SDS011;5279;42.048;24.638;2023-08-30T12:40:46;7.47;;;5.97;;
10463;SDS011;5279;42.048;24.638;2023-08-30T12:43:14;7.35;;;6.28;;
10463;SDS011;5279;42.048;24.638;2023-08-30T12:45:41;6.93;;;6.18;;
10463;SDS011;5279;42.048;24.638;2023-08-30T12:48:09;7.05;;;5.78;;
10463;SDS011;5279;42.048;24.638;2023-08-30T12:50:37;6.15;;;5.63;;
10463;SDS011;5279;42.048;24.638;2023-08-30T12:53:05;6.28;;;5.70;;
10463;SDS011;5279;42.048;24.638;2023-08-30T12:55:32;12.13;;;6.47;;
10463;SDS011;5279;42.048;24.638;2023-08-30T12:58:02;6.88;;;6.18;;
10463;SDS011;5279;42.048;24.638;2023-08-30T13:00:29;7.22;;;6.47;;
10463;SDS011;5279;42.048;24.638;2023-08-30T13:02:56;7.15;;;5.97;;
10463;SDS011;5279;42.048;24.638;2023-08-30T13:05:23;9.50;;;6.32;;
10463;SDS011;5279;42.048;24.638;2023-08-30T13:07:49;7.95;;;6.18;;
10463;SDS011;5279;42.048;24.638;2023-08-30T13:10:16;8.18;;;6.43;;
10463;SDS011;5279;42.048;24.638;2023-08-30T13:12:43;7.88;;;6.05;;
10463;SDS011;5279;42.048;24.638;2023-08-30T13:15:12;8.05;;;6.25;;
10463;SDS011;5279;42.048;24.638;2023-08-30T13:17:39;7.20;;;6.15;;
10463;SDS011;5279;42.048;24.638;2023-08-30T13:20:06;11.13;;;7.22;;
10463;SDS011;5279;42.048;24.638;2023-08-30T13:22:33;8.70;;;6.47;;
10463;SDS011;5279;42.048;24.638;2023-08-30T13:25:00;10.30;;;7.03;;
10463;SDS011;5279;42.048;24.638;2023-08-30T13:27:28;6.97;;;6.38;;
10463;SDS011;5279;42.048;24.638;2023-08-30T13:29:56;11.90;;;6.75;;
10463;SDS011;5279;42.048;24.638;2023-08-30T13:32:23;9.15;;;6.43;;
10463;SDS011;5279;42.048;24.638;2023-08-30T13:34:50;7.53;;;6.35;;
10463;SDS011;5279;42.048;24.638;2023-08-30T13:37:17;7.88;;;7.15;;
10463;SDS011;5279;42.048;24.638;2023-08-30T13:39:44;9.35;;;6.82;;
10463;SDS011;5279;42.048;24.638;2023-08-30T13:42:12;8.77;;;6.47;;
10463;SDS011;5279;42.048;24.638;2023-08-30T13:44:39;7.55;;;6.85;;
10463;SDS011;5279;42.048;24.638;2023-08-30T13:47:07;11.05;;;6.85;;
10463;SDS011;5279;42.048;24.638;2023-08-30T13:49:36;10.82;;;7.13;;
10463;SDS011;5279;42.048;24.638;2023-08-30T13:52:03;22.92;;;8.25;;
10463;SDS011;5279;42.048;24.638;2023-08-30T13:54:30;12.18;;;7.63;;
10463;SDS011;5279;42.048;24.638;2023-08-30T13:56:57;8.70;;;7.13;;
10463;SDS011;5279;42.048;24.638;2023-08-30T13:59:24;13.88;;;8.00;;
10463;SDS011;5279;42.048;24.638;2023-08-30T14:01:53;8.40;;;7.30;;
10463;SDS011;5279;42.048;24.638;2023-08-30T14:04:23;8.23;;;7.43;;
10463;SDS011;5279;42.048;24.638;2023-08-30T14:06:52;8.25;;;7.45;;
10463;SDS011;5279;42.048;24.638;2023-08-30T14:09:19;11.32;;;7.70;;
10463;SDS011;5279;42.048;24.638;2023-08-30T14:11:46;10.30;;;7.93;;
10463;SDS011;5279;42.048;24.638;2023-08-30T14:14:12;8.60;;;7.80;;
10463;SDS011;5279;42.048;24.638;2023-08-30T14:16:39;9.35;;;8.38;;
10463;SDS011;5279;42.048;24.638;2023-08-30T14:19:06;10.77;;;7.70;;
10463;SDS011;5279;42.048;24.638;2023-08-30T14:21:33;11.15;;;8.05;;
10463;SDS011;5279;42.048;24.638;2023-08-30T14:24:01;13.13;;;7.07;;
10463;SDS011;5279;42.048;24.638;2023-08-30T14:26:28;8.68;;;6.97;;
10463;SDS011;5279;42.048;24.638;2023-08-30T14:28:55;9.73;;;7.40;;
10463;SDS011;5279;42.048;24.638;2023-08-30T14:31:22;10.98;;;7.53;;
10463;SDS011;5279;42.048;24.638;2023-08-30T14:33:49;9.38;;;7.22;;
10463;SDS011;5279;42.048;24.638;2023-08-30T14:36:16;9.40;;;8.48;;
10463;SDS011;5279;42.048;24.638;2023-08-30T14:38:43;9.10;;;7.72;;
10463;SDS011;5279;42.048;24.638;2023-08-30T14:41:11;9.07;;;7.45;;
10463;SDS011;5279;42.048;24.638;2023-08-30T14:43:41;9.35;;;7.53;;
10463;SDS011;5279;42.048;24.638;2023-08-30T14:46:07;7.90;;;7.20;;
10463;SDS011;5279;42.048;24.638;2023-08-30T14:48:34;8.70;;;7.40;;
10463;SDS011;5279;42.048;24.638;2023-08-30T14:51:01;8.88;;;7.78;;
10463;SDS011;5279;42.048;24.638;2023-08-30T14:53:30;9.95;;;7.88;;
10463;SDS011;5279;42.048;24.638;2023-08-30T14:55:57;12.05;;;8.05;;
10463;SDS011;5279;42.048;24.638;2023-08-30T14:58:25;9.38;;;8.00;;
10463;SDS011;5279;42.048;24.638;2023-08-30T15:00:52;12.43;;;7.85;;
10463;SDS011;5279;42.048;24.638;2023-08-30T15:03:20;8.43;;;7.60;;
10463;SDS011;5279;42.048;24.638;2023-08-30T15:05:52;8.38;;;7.22;;
10463;SDS011;5279;42.048;24.638;2023-08-30T15:08:19;9.77;;;7.32;;